• Join FlightAware (Why Join?)
  • Login
  • US Flag 
01:56AM EST


 

Airport Tracker/Info


-or-


 

Live Flight TrackerFlight Track Log ✈ DPJ626 ✈ 09-Aug-2014 ✈ KPIE - KBCT

Flight Track Log - Related Links

Times and Time Zones

All times are in EDT time to prevent confusion due to time zone crossing. See the DPJ626 flight status page for this flight to view local times or setup timezone preferences in your user account.

Time Position Orientation Groundspeed Altitude Reporting Facility
EDT Latitude Longitude Course Direction KTS MPH feet Rate Location/Type
05:31PM 27.9000 -82.6833 196° South 171 197 800  Level Tampa TRACON
05:32PM 27.8500 -82.7000 196° South 247 284 2,400 3,180 Climbing Tampa TRACON
05:33PM 27.7667 -82.7333 199° South 276 318 7,200 3,600 Climbing Tampa TRACON
05:35PM 27.6364 -82.6425 148° Southeast 326 375 13,500 2,580 Climbing Miami Center
05:36PM 27.5533 -82.5764 145° Southeast 362 417 15,000 720 Climbing Miami Center
05:37PM 27.4542 -82.4917 143° Southeast 374 430 15,000  Level Miami Center
05:39PM 27.3792 -82.4108 136° Southeast 376 433 15,000  Level Miami Center
05:40PM 27.3014 -82.3300 137° Southeast 379 436 15,000  Level Miami Center
05:41PM 27.2258 -82.2500 137° Southeast 379 436 15,000  Level Miami Center
05:42PM 27.1517 -82.1728 137° Southeast 367 422 15,000  Level Miami Center
05:43PM 27.0619 -82.0783 137° Southeast 370 426 15,000  Level Miami Center
05:44PM 26.9833 -81.9958 137° Southeast 365 420 15,000  Level Miami Center
05:45PM 26.9100 -81.9197 137° Southeast 362 417 15,000  Level Miami Center
05:46PM 26.8303 -81.8369 137° Southeast 363 418 15,000  Level Miami Center
05:47PM 26.7558 -81.7603 137° Southeast 365 420 15,000  Level Miami Center
05:48PM 26.6947 -81.6614 125° Southeast 365 420 15,000  Level Miami Center
05:49PM 26.7083 -81.5500 82° East 365 420 15,000  Level Miami Center
05:50PM 26.7336 -81.4414 75° East 365 420 15,000  Level Miami Center
05:51PM 26.7614 -81.3222 75° East 370 426 15,000  Level Miami Center
05:52PM 26.7875 -81.2125 75° East 367 422 15,000 -240 Level Miami Center
05:53PM 26.8144 -81.0936 76° East 367 422 14,600 -1,080 Descending Miami Center
05:54PM 26.8111 -80.9850 92° East 347 399 12,800 -1,860 Descending Miami Center
05:55PM 26.8044 -80.8689 94° East 356 410 10,800 -1,860 Descending Miami Center
05:56PM 26.7925 -80.7731 98° East 303 349 9,000 -1,140 Descending Miami Center
05:57PM 26.7289 -80.7108 139° Southeast 290 334 8,500 -1,020 Descending Miami Center
05:58PM 26.6739 -80.6503 135° Southeast 283 326 7,000 -1,560 Descending Miami Center
05:59PM 26.6581 -80.5567 101° East 288 331 5,300 -1,020 Descending Miami Center
06:00PM 26.6447 -80.4719 100° East 280 322 5,000 -180 Descending Miami Center
06:01PM 26.6294 -80.3872 101° East 276 318 5,000  Level Miami Center
06:02PM 26.6128 -80.2961 102° East 276 318 5,000 -660 Level Miami Center
06:03PM 26.5967 -80.2119 102° East 279 321 3,700 -1,260 Descending Miami Center
06:04PM 26.5783 -80.1219 103° East 278 320 2,500 -840 Descending Miami Center
06:05PM 26.5492 -80.0483 114° Southeast 267 307 2,000 -240 Descending Miami Center
06:06PM 26.5092 -79.9947 130° Southeast 228 262 2,000 -240 Level Miami Center
06:07PM 26.4622 -80.0150 201° Southwest 192 221 1,600 -420 Descending Miami Center
06:09PM 26.4275 -80.0558 226° Southwest 188 216 1,200 -600 Descending Miami Center
06:10PM 26.3964 -80.0886 223° Southwest 146 168 400 -540 Descending Miami Center
06:11PM 26.3742 -80.1122 224° Southwest 131 151 200 -240 Descending Miami Center